sensor_id;sensor_type;location;lat;lon;timestamp;temperature;humidity
71523;HTU21D;59343;51.102;5.884;2024-01-25T05:00:05;7.43;88.71
71523;HTU21D;59343;51.102;5.884;2024-01-25T05:11:50;7.34;88.70
71523;HTU21D;59343;51.102;5.884;2024-01-25T05:24:41;7.28;88.99
71523;HTU21D;59343;51.102;5.884;2024-01-25T07:07:49;6.68;91.02
71523;HTU21D;59343;51.102;5.884;2024-01-25T07:11:11;6.67;91.15
71523;HTU21D;59343;51.102;5.884;2024-01-25T07:14:06;6.65;91.18
71523;HTU21D;59343;51.102;5.884;2024-01-25T07:17:19;6.65;91.31
71523;HTU21D;59343;51.102;5.884;2024-01-25T07:20:08;6.66;91.33
71523;HTU21D;59343;51.102;5.884;2024-01-25T07:22:59;6.65;91.34
71523;HTU21D;59343;51.102;5.884;2024-01-25T07:26:00;6.64;91.31
71523;HTU21D;59343;51.102;5.884;2024-01-25T07:29:45;6.65;91.17
71523;HTU21D;59343;51.102;5.884;2024-01-25T07:32:27;6.65;91.14
71523;HTU21D;59343;51.102;5.884;2024-01-25T07:36:17;6.67;91.15
71523;HTU21D;59343;51.102;5.884;2024-01-25T07:39:33;6.67;91.25
71523;HTU21D;59343;51.102;5.884;2024-01-25T07:42:13;6.70;91.28
71523;HTU21D;59343;51.102;5.884;2024-01-25T07:45:23;6.72;91.40
71523;HTU21D;59343;51.102;5.884;2024-01-25T07:48:40;6.75;91.51
71523;HTU21D;59343;51.102;5.884;2024-01-25T07:51:51;6.76;91.75
71523;HTU21D;59343;51.102;5.884;2024-01-25T07:57:55;6.95;92.17
71523;HTU21D;59343;51.102;5.884;2024-01-25T08:00:22;7.04;92.09
71523;HTU21D;59343;51.102;5.884;2024-01-25T08:02:54;7.14;91.85
71523;HTU21D;59343;51.102;5.884;2024-01-25T08:05:20;7.19;91.56
71523;HTU21D;59343;51.102;5.884;2024-01-25T08:07:46;7.26;91.55
71523;HTU21D;59343;51.102;5.884;2024-01-25T08:10:12;7.32;91.44
71523;HTU21D;59343;51.102;5.884;2024-01-25T08:12:39;7.38;91.23
71523;HTU21D;59343;51.102;5.884;2024-01-25T08:15:06;7.45;91.02
71523;HTU21D;59343;51.102;5.884;2024-01-25T08:17:32;7.50;90.60
71523;HTU21D;59343;51.102;5.884;2024-01-25T08:19:58;7.52;90.44
71523;HTU21D;59343;51.102;5.884;2024-01-25T08:22:24;7.60;90.27
71523;HTU21D;59343;51.102;5.884;2024-01-25T08:24:50;7.63;89.86
71523;HTU21D;59343;51.102;5.884;2024-01-25T08:27:20;7.67;89.75
71523;HTU21D;59343;51.102;5.884;2024-01-25T09:26:15;8.98;86.88
71523;HTU21D;59343;51.102;5.884;2024-01-25T09:33:00;9.26;86.15
71523;HTU21D;59343;51.102;5.884;2024-01-25T09:35:26;9.35;86.37
71523;HTU21D;59343;51.102;5.884;2024-01-25T09:38:14;9.57;87.08
71523;HTU21D;59343;51.102;5.884;2024-01-25T11:48:42;10.65;81.10
71523;HTU21D;59343;51.102;5.884;2024-01-25T12:22:52;11.56;77.18
71523;HTU21D;59343;51.102;5.884;2024-01-25T13:11:33;11.52;76.25
71523;HTU21D;59343;51.102;5.884;2024-01-25T13:15:38;11.55;76.15
71523;HTU21D;59343;51.102;5.884;2024-01-25T13:32:19;11.55;75.89
71523;HTU21D;59343;51.102;5.884;2024-01-25T13:36:24;11.52;76.07
71523;HTU21D;59343;51.102;5.884;2024-01-25T13:58:21;11.64;76.07
71523;HTU21D;59343;51.102;5.884;2024-01-25T14:02:11;11.71;76.00
71523;HTU21D;59343;51.102;5.884;2024-01-25T14:06:12;11.76;75.89
71523;HTU21D;59343;51.102;5.884;2024-01-25T14:19:18;11.84;75.73
71523;HTU21D;59343;51.102;5.884;2024-01-25T14:32:25;11.75;75.99
71523;HTU21D;59343;51.102;5.884;2024-01-25T14:50:09;11.03;84.60
71523;HTU21D;59343;51.102;5.884;2024-01-25T14:58:06;10.96;86.39
71523;HTU21D;59343;51.102;5.884;2024-01-25T15:01:54;10.96;87.12
71523;HTU21D;59343;51.102;5.884;2024-01-25T15:51:04;10.74;90.19
71523;HTU21D;59343;51.102;5.884;2024-01-25T16:39:04;10.77;91.19
71523;HTU21D;59343;51.102;5.884;2024-01-25T16:41:40;10.79;91.21
71523;HTU21D;59343;51.102;5.884;2024-01-25T16:44:14;10.79;91.05
71523;HTU21D;59343;51.102;5.884;2024-01-25T16:51:13;10.80;91.07
71523;HTU21D;59343;51.102;5.884;2024-01-25T16:53:40;10.77;91.15
71523;HTU21D;59343;51.102;5.884;2024-01-25T16:56:07;10.75;91.32
71523;HTU21D;59343;51.102;5.884;2024-01-25T16:58:37;10.73;91.53
71523;HTU21D;59343;51.102;5.884;2024-01-25T17:01:05;10.73;91.82
71523;HTU21D;59343;51.102;5.884;2024-01-25T17:03:32;10.73;91.76
71523;HTU21D;59343;51.102;5.884;2024-01-25T17:06:03;10.74;91.92
71523;HTU21D;59343;51.102;5.884;2024-01-25T17:08:34;10.75;91.92
71523;HTU21D;59343;51.102;5.884;2024-01-25T17:11:01;10.74;92.01
